Gallup, NM

2:36 PM MDT on October 24, 2014 (GMT -0600)
Gallup Municipal | Change Station
CLOSE
Current Station
Airport
Location: Gallup,
Elevation: 6470 ft
Nearby Weather Stations

Elev 6470 ft 35.51 °N, 108.79 °W | Updated 43 minutes ago

Clear
Clear
72 °F
Feels Like 72 °F
N
6
Wind Variable Wind from Variable

Today
High -- | Low -- °F
--% Chance of Precip.
Yesterday
High -- | Low -- °F
Precip. -- in
7:29 AM 6:28 PM
New Moon, 1% visible
Pressure 30.04 in
Visibility 10.0 miles
Clouds Clear
Dew Point 30 °F
Humidity 21%
Rainfall 0.00 in
Snow Depth Not available.
UV 6 out of 12
Pollen 2.40 out of 12
Air Quality Not available.
Flu Activity Sporadic
METAR KGUP 241953Z AUTO VRB05KT 10SM CLR 22/M01 A3035 RMK AO2 SLP173 T02221011

More Conditions Fewer Conditions

Pressure 30.04 in
Visibility 10.0 miles
Clouds Clear
Dew Point 30 °F
Humidity 21%
Rainfall 0.00 in
Snow Depth Not available.
UV 6 out of 12
Pollen 2.40 out of 12
Air Quality Not available.
Flu Activity Sporadic
METAR KGUP 241953Z AUTO VRB05KT 10SM CLR 22/M01 A3035 RMK AO2 SLP173 T02221011

More Conditions Fewer Conditions

10-Day Weather Forecast

Almanac

Astronomy

Oct. 24, 2014 Rise Set
Actual Time 7:29 AM MDT 6:28 PM MDT
Civil Twilight 7:03 AM MDT 6:54 PM MDT
Nautical Twilight 6:33 AM MDT 7:24 PM MDT
Astronomical Twilight 6:03 AM MDT 7:53 PM MDT
Moon 8:10 AM MDT 7:12 PM MDT
Length of Visible Light 11h 51m
Length of Day
10h 59m
Tomorrow will be 2m 3s shorter.
New Moon, 1% of the Moon is Illuminated
Today
New Moon
Oct 30
First Quarter
Nov 6
Full
Nov 14
Last Quarter
Nov 22
New

Today's Extremes

State Highs State Lows

Community

WunderPhotos

Upload Photos

1,764,648 photos uploaded!

Nearby

Snow Depth

Station Depth Elevation
Senorita Divide #2 0 in 8600 ft
Frisco Divide 0 in 8000 ft
Quemazon 0 in 9500 ft
Silver Creek Divide 0 in 9000 ft
Hopewell 0 in 10000 ft

Earthquake Activity

City Distance Mag. Time & Date
No recent earthquake activity has been reported nearby.
Minimum magnitude displayed is 2.5.

Coastal Water Temperatures

Place Temperature
No Stations Reporting

Nearby Weather Stations